sensor_id;sensor_type;location;lat;lon;timestamp;P1;durP1;ratioP1;P2;durP2;ratioP2
74245;SDS011;62601;51.044;13.788;2023-01-24T00:00:43;58.63;;;25.95;;
74245;SDS011;62601;51.044;13.788;2023-01-24T00:03:07;55.40;;;25.60;;
74245;SDS011;62601;51.044;13.788;2023-01-24T00:05:29;54.03;;;25.42;;
74245;SDS011;62601;51.044;13.788;2023-01-24T00:07:50;53.20;;;24.77;;
74245;SDS011;62601;51.044;13.788;2023-01-24T00:10:15;56.08;;;25.63;;
74245;SDS011;62601;51.044;13.788;2023-01-24T00:12:36;44.03;;;22.10;;
74245;SDS011;62601;51.044;13.788;2023-01-24T00:14:57;50.53;;;24.77;;
74245;SDS011;62601;51.044;13.788;2023-01-24T00:17:19;46.83;;;22.02;;
74245;SDS011;62601;51.044;13.788;2023-01-24T00:19:40;47.35;;;23.77;;
74245;SDS011;62601;51.044;13.788;2023-01-24T00:22:02;51.88;;;23.40;;
74245;SDS011;62601;51.044;13.788;2023-01-24T00:24:22;46.55;;;23.15;;
74245;SDS011;62601;51.044;13.788;2023-01-24T00:26:44;44.00;;;22.88;;
74245;SDS011;62601;51.044;13.788;2023-01-24T00:29:05;50.53;;;24.92;;
74245;SDS011;62601;51.044;13.788;2023-01-24T00:31:25;56.53;;;26.05;;
74245;SDS011;62601;51.044;13.788;2023-01-24T00:33:46;54.95;;;24.88;;
74245;SDS011;62601;51.044;13.788;2023-01-24T00:36:09;47.08;;;23.13;;
74245;SDS011;62601;51.044;13.788;2023-01-24T00:38:32;51.88;;;25.33;;
74245;SDS011;62601;51.044;13.788;2023-01-24T00:40:56;55.78;;;27.13;;
74245;SDS011;62601;51.044;13.788;2023-01-24T00:43:21;52.22;;;26.02;;
74245;SDS011;62601;51.044;13.788;2023-01-24T00:45:43;61.00;;;25.85;;
74245;SDS011;62601;51.044;13.788;2023-01-24T00:48:04;53.50;;;25.95;;
74245;SDS011;62601;51.044;13.788;2023-01-24T00:50:27;59.15;;;25.70;;
74245;SDS011;62601;51.044;13.788;2023-01-24T00:52:48;55.95;;;27.20;;
74245;SDS011;62601;51.044;13.788;2023-01-24T00:55:09;57.95;;;25.13;;
74245;SDS011;62601;51.044;13.788;2023-01-24T00:57:30;56.35;;;24.52;;
74245;SDS011;62601;51.044;13.788;2023-01-24T00:59:52;52.25;;;24.35;;
74245;SDS011;62601;51.044;13.788;2023-01-24T01:02:13;55.92;;;26.83;;
74245;SDS011;62601;51.044;13.788;2023-01-24T01:04:35;56.28;;;26.65;;
74245;SDS011;62601;51.044;13.788;2023-01-24T01:06:56;62.35;;;26.70;;
74245;SDS011;62601;51.044;13.788;2023-01-24T01:09:17;61.75;;;27.25;;
74245;SDS011;62601;51.044;13.788;2023-01-24T01:11:39;58.75;;;25.65;;
74245;SDS011;62601;51.044;13.788;2023-01-24T01:13:59;54.03;;;24.67;;
74245;SDS011;62601;51.044;13.788;2023-01-24T01:16:20;54.47;;;25.85;;
74245;SDS011;62601;51.044;13.788;2023-01-24T01:18:42;53.75;;;25.38;;
74245;SDS011;62601;51.044;13.788;2023-01-24T01:21:04;55.92;;;26.23;;
74245;SDS011;62601;51.044;13.788;2023-01-24T01:23:26;57.53;;;25.60;;
74245;SDS011;62601;51.044;13.788;2023-01-24T01:25:48;53.95;;;24.45;;
74245;SDS011;62601;51.044;13.788;2023-01-24T01:28:12;56.08;;;25.33;;
74245;SDS011;62601;51.044;13.788;2023-01-24T01:30:33;59.33;;;26.25;;
74245;SDS011;62601;51.044;13.788;2023-01-24T01:32:54;57.65;;;27.42;;
74245;SDS011;62601;51.044;13.788;2023-01-24T01:35:16;51.70;;;24.98;;
74245;SDS011;62601;51.044;13.788;2023-01-24T01:37:38;55.67;;;26.75;;
74245;SDS011;62601;51.044;13.788;2023-01-24T01:40:00;59.90;;;27.48;;
74245;SDS011;62601;51.044;13.788;2023-01-24T01:42:21;53.20;;;25.38;;
74245;SDS011;62601;51.044;13.788;2023-01-24T01:44:43;49.03;;;23.60;;
74245;SDS011;62601;51.044;13.788;2023-01-24T01:49:46;55.65;;;25.42;;
74245;SDS011;62601;51.044;13.788;2023-01-24T01:52:17;55.92;;;25.20;;
74245;SDS011;62601;51.044;13.788;2023-01-24T01:54:41;52.35;;;24.05;;
74245;SDS011;62601;51.044;13.788;2023-01-24T01:57:10;60.20;;;26.13;;
74245;SDS011;62601;51.044;13.788;2023-01-24T01:59:39;52.63;;;25.65;;
74245;SDS011;62601;51.044;13.788;2023-01-24T02:02:00;62.55;;;29.83;;
74245;SDS011;62601;51.044;13.788;2023-01-24T02:04:32;56.25;;;25.75;;
74245;SDS011;62601;51.044;13.788;2023-01-24T02:09:16;51.00;;;26.08;;
74245;SDS011;62601;51.044;13.788;2023-01-24T02:11:39;55.67;;;25.92;;
74245;SDS011;62601;51.044;13.788;2023-01-24T02:14:04;55.05;;;25.38;;
74245;SDS011;62601;51.044;13.788;2023-01-24T02:16:26;57.78;;;25.92;;
74245;SDS011;62601;51.044;13.788;2023-01-24T02:18:46;61.30;;;26.40;;
74245;SDS011;62601;51.044;13.788;2023-01-24T02:21:08;57.05;;;26.88;;
74245;SDS011;62601;51.044;13.788;2023-01-24T02:26:20;58.42;;;25.63;;
74245;SDS011;62601;51.044;13.788;2023-01-24T02:28:45;55.35;;;26.50;;
74245;SDS011;62601;51.044;13.788;2023-01-24T02:31:08;53.85;;;26.25;;
74245;SDS011;62601;51.044;13.788;2023-01-24T02:33:30;59.35;;;27.48;;
74245;SDS011;62601;51.044;13.788;2023-01-24T02:38:33;54.88;;;26.42;;
74245;SDS011;62601;51.044;13.788;2023-01-24T02:40:58;57.78;;;26.58;;
74245;SDS011;62601;51.044;13.788;2023-01-24T02:43:22;51.55;;;24.85;;
74245;SDS011;62601;51.044;13.788;2023-01-24T02:45:46;53.47;;;26.70;;
74245;SDS011;62601;51.044;13.788;2023-01-24T02:48:07;50.20;;;24.50;;
74245;SDS011;62601;51.044;13.788;2023-01-24T02:50:28;55.65;;;25.45;;
74245;SDS011;62601;51.044;13.788;2023-01-24T02:52:50;57.08;;;25.13;;
74245;SDS011;62601;51.044;13.788;2023-01-24T02:55:12;53.20;;;25.48;;
74245;SDS011;62601;51.044;13.788;2023-01-24T02:57:33;51.58;;;26.20;;
74245;SDS011;62601;51.044;13.788;2023-01-24T02:59:53;52.05;;;23.55;;
74245;SDS011;62601;51.044;13.788;2023-01-24T03:02:15;53.33;;;24.25;;
74245;SDS011;62601;51.044;13.788;2023-01-24T03:04:36;56.80;;;27.10;;
74245;SDS011;62601;51.044;13.788;2023-01-24T03:06:58;53.17;;;25.58;;
74245;SDS011;62601;51.044;13.788;2023-01-24T03:09:22;55.83;;;25.42;;
74245;SDS011;62601;51.044;13.788;2023-01-24T03:11:47;56.63;;;26.65;;
74245;SDS011;62601;51.044;13.788;2023-01-24T03:14:10;52.38;;;23.90;;
74245;SDS011;62601;51.044;13.788;2023-01-24T03:16:31;49.25;;;23.77;;
74245;SDS011;62601;51.044;13.788;2023-01-24T03:18:52;58.08;;;24.67;;
74245;SDS011;62601;51.044;13.788;2023-01-24T03:21:14;54.20;;;25.90;;
74245;SDS011;62601;51.044;13.788;2023-01-24T03:23:35;49.97;;;24.35;;
74245;SDS011;62601;51.044;13.788;2023-01-24T03:25:57;49.63;;;24.98;;
74245;SDS011;62601;51.044;13.788;2023-01-24T03:28:18;46.10;;;23.70;;
74245;SDS011;62601;51.044;13.788;2023-01-24T03:30:40;52.65;;;25.02;;
74245;SDS011;62601;51.044;13.788;2023-01-24T03:33:02;47.83;;;24.45;;
74245;SDS011;62601;51.044;13.788;2023-01-24T03:35:23;53.05;;;24.42;;
74245;SDS011;62601;51.044;13.788;2023-01-24T03:37:43;46.67;;;23.42;;
74245;SDS011;62601;51.044;13.788;2023-01-24T03:40:06;42.70;;;22.17;;
74245;SDS011;62601;51.044;13.788;2023-01-24T03:42:36;49.90;;;24.83;;
74245;SDS011;62601;51.044;13.788;2023-01-24T03:45:00;42.58;;;21.92;;
74245;SDS011;62601;51.044;13.788;2023-01-24T03:47:21;45.22;;;22.08;;
74245;SDS011;62601;51.044;13.788;2023-01-24T03:49:43;43.58;;;22.40;;
74245;SDS011;62601;51.044;13.788;2023-01-24T03:52:04;56.47;;;23.70;;
74245;SDS011;62601;51.044;13.788;2023-01-24T03:54:25;48.95;;;24.17;;
74245;SDS011;62601;51.044;13.788;2023-01-24T03:56:47;52.10;;;23.70;;
74245;SDS011;62601;51.044;13.788;2023-01-24T03:59:09;48.38;;;23.45;;
74245;SDS011;62601;51.044;13.788;2023-01-24T04:01:29;47.65;;;24.73;;
74245;SDS011;62601;51.044;13.788;2023-01-24T04:03:50;47.03;;;23.90;;
74245;SDS011;62601;51.044;13.788;2023-01-24T04:06:11;52.28;;;25.70;;
74245;SDS011;62601;51.044;13.788;2023-01-24T04:08:33;53.47;;;25.40;;
74245;SDS011;62601;51.044;13.788;2023-01-24T04:10:55;47.47;;;23.15;;
74245;SDS011;62601;51.044;13.788;2023-01-24T04:13:16;55.85;;;24.42;;
74245;SDS011;62601;51.044;13.788;2023-01-24T04:15:38;49.03;;;24.27;;
74245;SDS011;62601;51.044;13.788;2023-01-24T04:18:00;57.40;;;23.58;;
74245;SDS011;62601;51.044;13.788;2023-01-24T04:20:22;52.88;;;24.20;;
74245;SDS011;62601;51.044;13.788;2023-01-24T04:22:43;45.83;;;23.17;;
74245;SDS011;62601;51.044;13.788;2023-01-24T04:25:04;51.00;;;23.00;;
74245;SDS011;62601;51.044;13.788;2023-01-24T04:27:26;48.60;;;22.67;;
74245;SDS011;62601;51.044;13.788;2023-01-24T04:29:47;49.38;;;23.58;;
74245;SDS011;62601;51.044;13.788;2023-01-24T04:32:12;48.17;;;22.88;;
74245;SDS011;62601;51.044;13.788;2023-01-24T04:34:33;44.78;;;22.27;;
74245;SDS011;62601;51.044;13.788;2023-01-24T04:36:55;48.58;;;22.45;;
74245;SDS011;62601;51.044;13.788;2023-01-24T04:39:16;50.15;;;23.88;;
74245;SDS011;62601;51.044;13.788;2023-01-24T04:41:36;47.65;;;22.90;;
74245;SDS011;62601;51.044;13.788;2023-01-24T04:43:57;43.00;;;21.13;;
74245;SDS011;62601;51.044;13.788;2023-01-24T04:46:19;50.28;;;22.65;;
74245;SDS011;62601;51.044;13.788;2023-01-24T04:48:40;50.35;;;23.23;;
74245;SDS011;62601;51.044;13.788;2023-01-24T04:51:02;50.60;;;25.33;;
74245;SDS011;62601;51.044;13.788;2023-01-24T04:53:22;50.60;;;23.67;;
74245;SDS011;62601;51.044;13.788;2023-01-24T04:55:44;50.60;;;23.02;;
74245;SDS011;62601;51.044;13.788;2023-01-24T04:58:05;50.38;;;23.77;;
74245;SDS011;62601;51.044;13.788;2023-01-24T05:00:25;48.33;;;23.15;;
74245;SDS011;62601;51.044;13.788;2023-01-24T05:02:45;47.97;;;22.80;;
74245;SDS011;62601;51.044;13.788;2023-01-24T05:05:06;53.15;;;25.27;;
74245;SDS011;62601;51.044;13.788;2023-01-24T05:07:28;53.45;;;23.65;;
74245;SDS011;62601;51.044;13.788;2023-01-24T05:09:49;50.10;;;24.02;;
74245;SDS011;62601;51.044;13.788;2023-01-24T05:12:11;55.80;;;25.15;;
74245;SDS011;62601;51.044;13.788;2023-01-24T05:14:33;48.17;;;22.50;;
74245;SDS011;62601;51.044;13.788;2023-01-24T05:16:55;49.00;;;22.30;;
74245;SDS011;62601;51.044;13.788;2023-01-24T05:19:16;59.83;;;25.58;;
74245;SDS011;62601;51.044;13.788;2023-01-24T05:21:38;57.63;;;23.45;;
74245;SDS011;62601;51.044;13.788;2023-01-24T05:23:59;52.42;;;24.10;;
74245;SDS011;62601;51.044;13.788;2023-01-24T05:26:21;64.25;;;27.55;;
74245;SDS011;62601;51.044;13.788;2023-01-24T05:28:44;48.65;;;23.35;;
74245;SDS011;62601;51.044;13.788;2023-01-24T05:31:05;45.47;;;22.58;;
74245;SDS011;62601;51.044;13.788;2023-01-24T05:33:27;49.45;;;23.42;;
74245;SDS011;62601;51.044;13.788;2023-01-24T05:35:48;50.17;;;23.70;;
74245;SDS011;62601;51.044;13.788;2023-01-24T05:38:10;45.80;;;21.77;;
74245;SDS011;62601;51.044;13.788;2023-01-24T05:40:30;51.80;;;22.80;;
74245;SDS011;62601;51.044;13.788;2023-01-24T05:42:52;52.70;;;23.30;;
74245;SDS011;62601;51.044;13.788;2023-01-24T05:45:13;55.10;;;23.20;;
74245;SDS011;62601;51.044;13.788;2023-01-24T05:47:33;50.88;;;23.30;;
74245;SDS011;62601;51.044;13.788;2023-01-24T05:49:55;46.05;;;22.63;;
74245;SDS011;62601;51.044;13.788;2023-01-24T05:52:16;45.10;;;21.15;;
74245;SDS011;62601;51.044;13.788;2023-01-24T05:54:37;49.67;;;23.48;;
74245;SDS011;62601;51.044;13.788;2023-01-24T05:56:58;52.10;;;24.20;;
74245;SDS011;62601;51.044;13.788;2023-01-24T05:59:20;44.88;;;21.45;;
74245;SDS011;62601;51.044;13.788;2023-01-24T06:01:41;44.53;;;20.67;;
74245;SDS011;62601;51.044;13.788;2023-01-24T06:04:01;49.00;;;21.08;;
74245;SDS011;62601;51.044;13.788;2023-01-24T06:06:23;47.42;;;22.52;;
74245;SDS011;62601;51.044;13.788;2023-01-24T06:08:43;45.30;;;22.25;;
74245;SDS011;62601;51.044;13.788;2023-01-24T06:11:06;50.75;;;22.50;;
74245;SDS011;62601;51.044;13.788;2023-01-24T06:13:27;48.67;;;20.60;;
74245;SDS011;62601;51.044;13.788;2023-01-24T06:15:47;42.63;;;20.50;;
74245;SDS011;62601;51.044;13.788;2023-01-24T06:18:09;46.35;;;22.30;;
74245;SDS011;62601;51.044;13.788;2023-01-24T06:20:33;45.00;;;21.48;;
74245;SDS011;62601;51.044;13.788;2023-01-24T06:23:05;43.75;;;20.70;;
74245;SDS011;62601;51.044;13.788;2023-01-24T06:25:26;43.75;;;21.27;;
74245;SDS011;62601;51.044;13.788;2023-01-24T06:27:48;44.35;;;20.98;;
74245;SDS011;62601;51.044;13.788;2023-01-24T06:30:11;42.95;;;20.85;;
74245;SDS011;62601;51.044;13.788;2023-01-24T06:35:04;43.35;;;20.90;;
74245;SDS011;62601;51.044;13.788;2023-01-24T06:37:44;38.85;;;20.75;;
74245;SDS011;62601;51.044;13.788;2023-01-24T06:40:06;43.28;;;21.50;;
74245;SDS011;62601;51.044;13.788;2023-01-24T06:42:28;47.55;;;21.58;;
74245;SDS011;62601;51.044;13.788;2023-01-24T06:44:50;44.05;;;22.83;;
74245;SDS011;62601;51.044;13.788;2023-01-24T06:47:12;38.95;;;19.70;;
74245;SDS011;62601;51.044;13.788;2023-01-24T06:49:33;42.85;;;19.80;;
74245;SDS011;62601;51.044;13.788;2023-01-24T06:51:55;47.72;;;23.60;;
74245;SDS011;62601;51.044;13.788;2023-01-24T06:54:16;48.08;;;21.50;;
74245;SDS011;62601;51.044;13.788;2023-01-24T06:56:37;47.30;;;21.60;;
74245;SDS011;62601;51.044;13.788;2023-01-24T06:58:57;42.53;;;20.88;;
74245;SDS011;62601;51.044;13.788;2023-01-24T07:01:17;48.65;;;21.42;;
74245;SDS011;62601;51.044;13.788;2023-01-24T07:03:38;43.15;;;22.00;;
74245;SDS011;62601;51.044;13.788;2023-01-24T07:05:59;42.50;;;20.38;;
74245;SDS011;62601;51.044;13.788;2023-01-24T07:08:21;45.88;;;19.55;;
74245;SDS011;62601;51.044;13.788;2023-01-24T07:10:42;45.70;;;20.23;;
74245;SDS011;62601;51.044;13.788;2023-01-24T07:13:04;39.83;;;20.42;;
74245;SDS011;62601;51.044;13.788;2023-01-24T07:15:25;44.00;;;19.58;;
74245;SDS011;62601;51.044;13.788;2023-01-24T07:17:46;38.83;;;20.60;;
74245;SDS011;62601;51.044;13.788;2023-01-24T07:20:08;42.00;;;21.70;;
74245;SDS011;62601;51.044;13.788;2023-01-24T07:22:30;43.40;;;21.13;;
74245;SDS011;62601;51.044;13.788;2023-01-24T07:24:51;45.65;;;22.30;;
74245;SDS011;62601;51.044;13.788;2023-01-24T07:27:13;41.08;;;19.85;;
74245;SDS011;62601;51.044;13.788;2023-01-24T07:29:34;39.80;;;20.02;;
74245;SDS011;62601;51.044;13.788;2023-01-24T07:31:56;45.55;;;20.77;;
74245;SDS011;62601;51.044;13.788;2023-01-24T07:34:18;39.60;;;20.92;;
74245;SDS011;62601;51.044;13.788;2023-01-24T07:36:40;44.35;;;19.02;;
74245;SDS011;62601;51.044;13.788;2023-01-24T07:39:04;35.58;;;18.45;;
74245;SDS011;62601;51.044;13.788;2023-01-24T07:41:25;42.10;;;19.48;;
74245;SDS011;62601;51.044;13.788;2023-01-24T07:43:47;41.58;;;19.58;;
74245;SDS011;62601;51.044;13.788;2023-01-24T07:46:08;41.50;;;19.52;;
74245;SDS011;62601;51.044;13.788;2023-01-24T07:48:30;39.88;;;19.08;;
74245;SDS011;62601;51.044;13.788;2023-01-24T07:50:51;43.08;;;21.10;;
74245;SDS011;62601;51.044;13.788;2023-01-24T07:53:11;45.20;;;20.38;;
74245;SDS011;62601;51.044;13.788;2023-01-24T07:55:36;45.20;;;21.65;;
74245;SDS011;62601;51.044;13.788;2023-01-24T07:58:00;40.65;;;19.75;;
74245;SDS011;62601;51.044;13.788;2023-01-24T08:00:22;45.13;;;20.70;;
74245;SDS011;62601;51.044;13.788;2023-01-24T08:02:43;44.45;;;20.80;;
74245;SDS011;62601;51.044;13.788;2023-01-24T08:05:06;45.63;;;21.75;;
74245;SDS011;62601;51.044;13.788;2023-01-24T08:07:26;38.25;;;18.80;;
74245;SDS011;62601;51.044;13.788;2023-01-24T08:09:48;41.75;;;19.88;;
74245;SDS011;62601;51.044;13.788;2023-01-24T08:12:10;44.03;;;20.15;;
74245;SDS011;62601;51.044;13.788;2023-01-24T08:14:33;44.00;;;20.60;;
74245;SDS011;62601;51.044;13.788;2023-01-24T08:16:53;44.58;;;21.38;;
74245;SDS011;62601;51.044;13.788;2023-01-24T08:19:13;44.92;;;21.25;;
74245;SDS011;62601;51.044;13.788;2023-01-24T08:21:33;39.10;;;19.05;;
74245;SDS011;62601;51.044;13.788;2023-01-24T08:23:53;40.70;;;20.33;;
74245;SDS011;62601;51.044;13.788;2023-01-24T08:26:14;41.38;;;20.73;;
74245;SDS011;62601;51.044;13.788;2023-01-24T08:28:36;42.22;;;20.60;;
74245;SDS011;62601;51.044;13.788;2023-01-24T08:30:58;43.38;;;20.83;;
74245;SDS011;62601;51.044;13.788;2023-01-24T08:33:19;46.58;;;21.02;;
74245;SDS011;62601;51.044;13.788;2023-01-24T08:35:39;46.65;;;20.27;;
74245;SDS011;62601;51.044;13.788;2023-01-24T08:38:00;44.38;;;21.38;;
74245;SDS011;62601;51.044;13.788;2023-01-24T08:40:21;42.85;;;20.70;;
74245;SDS011;62601;51.044;13.788;2023-01-24T08:42:42;41.33;;;19.70;;
74245;SDS011;62601;51.044;13.788;2023-01-24T08:45:02;48.05;;;21.60;;
74245;SDS011;62601;51.044;13.788;2023-01-24T08:47:24;41.95;;;21.73;;
74245;SDS011;62601;51.044;13.788;2023-01-24T08:49:44;50.95;;;22.02;;
74245;SDS011;62601;51.044;13.788;2023-01-24T08:52:05;46.95;;;22.13;;
74245;SDS011;62601;51.044;13.788;2023-01-24T08:54:27;42.50;;;20.40;;
74245;SDS011;62601;51.044;13.788;2023-01-24T08:56:47;45.10;;;20.85;;
74245;SDS011;62601;51.044;13.788;2023-01-24T08:59:07;44.17;;;20.25;;
74245;SDS011;62601;51.044;13.788;2023-01-24T09:01:27;44.47;;;21.40;;
74245;SDS011;62601;51.044;13.788;2023-01-24T09:03:48;45.83;;;20.73;;
74245;SDS011;62601;51.044;13.788;2023-01-24T09:06:10;43.78;;;21.80;;
74245;SDS011;62601;51.044;13.788;2023-01-24T09:08:31;43.78;;;20.08;;
74245;SDS011;62601;51.044;13.788;2023-01-24T09:10:53;44.92;;;21.27;;
74245;SDS011;62601;51.044;13.788;2023-01-24T09:13:14;48.70;;;22.17;;
74245;SDS011;62601;51.044;13.788;2023-01-24T09:15:36;48.85;;;21.00;;
74245;SDS011;62601;51.044;13.788;2023-01-24T09:17:59;47.13;;;20.88;;
74245;SDS011;62601;51.044;13.788;2023-01-24T09:20:20;48.10;;;21.10;;
74245;SDS011;62601;51.044;13.788;2023-01-24T09:22:42;41.85;;;20.08;;
74245;SDS011;62601;51.044;13.788;2023-01-24T09:25:03;50.22;;;21.55;;
74245;SDS011;62601;51.044;13.788;2023-01-24T09:27:24;47.55;;;22.10;;
74245;SDS011;62601;51.044;13.788;2023-01-24T09:29:46;49.55;;;23.33;;
74245;SDS011;62601;51.044;13.788;2023-01-24T09:32:08;49.17;;;21.48;;
74245;SDS011;62601;51.044;13.788;2023-01-24T09:34:29;51.72;;;22.40;;
74245;SDS011;62601;51.044;13.788;2023-01-24T09:36:49;46.55;;;22.50;;
74245;SDS011;62601;51.044;13.788;2023-01-24T09:39:11;46.35;;;20.85;;
74245;SDS011;62601;51.044;13.788;2023-01-24T09:46:50;46.30;;;22.15;;
74245;SDS011;62601;51.044;13.788;2023-01-24T09:49:56;48.47;;;22.17;;
74245;SDS011;62601;51.044;13.788;2023-01-24T09:52:01;50.63;;;22.67;;
74245;SDS011;62601;51.044;13.788;2023-01-24T09:54:35;52.42;;;22.17;;
74245;SDS011;62601;51.044;13.788;2023-01-24T09:56:58;49.88;;;22.23;;
74245;SDS011;62601;51.044;13.788;2023-01-24T10:02:20;49.10;;;21.25;;
74245;SDS011;62601;51.044;13.788;2023-01-24T10:04:40;49.17;;;22.65;;
74245;SDS011;62601;51.044;13.788;2023-01-24T10:09:43;51.45;;;20.77;;
74245;SDS011;62601;51.044;13.788;2023-01-24T10:12:20;49.40;;;23.27;;
74245;SDS011;62601;51.044;13.788;2023-01-24T10:14:54;50.40;;;22.60;;
74245;SDS011;62601;51.044;13.788;2023-01-24T10:20:07;49.15;;;21.40;;
74245;SDS011;62601;51.044;13.788;2023-01-24T10:25:17;41.28;;;19.58;;
74245;SDS011;62601;51.044;13.788;2023-01-24T10:27:40;47.20;;;23.23;;
74245;SDS011;62601;51.044;13.788;2023-01-24T10:30:12;48.28;;;23.30;;
74245;SDS011;62601;51.044;13.788;2023-01-24T10:32:35;59.10;;;22.80;;
74245;SDS011;62601;51.044;13.788;2023-01-24T10:35:11;51.75;;;22.90;;
74245;SDS011;62601;51.044;13.788;2023-01-24T10:37:33;54.35;;;23.05;;
74245;SDS011;62601;51.044;13.788;2023-01-24T10:40:13;50.83;;;21.20;;
74245;SDS011;62601;51.044;13.788;2023-01-24T10:42:34;49.70;;;21.13;;
74245;SDS011;62601;51.044;13.788;2023-01-24T10:44:55;46.65;;;22.35;;
74245;SDS011;62601;51.044;13.788;2023-01-24T10:50:04;52.13;;;21.55;;
74245;SDS011;62601;51.044;13.788;2023-01-24T10:52:24;50.15;;;23.35;;
74245;SDS011;62601;51.044;13.788;2023-01-24T10:54:56;50.90;;;22.58;;
74245;SDS011;62601;51.044;13.788;2023-01-24T11:00:41;50.00;;;21.95;;
74245;SDS011;62601;51.044;13.788;2023-01-24T11:02:46;49.95;;;21.77;;
74245;SDS011;62601;51.044;13.788;2023-01-24T11:05:09;50.80;;;22.90;;
74245;SDS011;62601;51.044;13.788;2023-01-24T11:07:32;51.28;;;24.20;;
74245;SDS011;62601;51.044;13.788;2023-01-24T11:09:54;51.22;;;22.80;;
74245;SDS011;62601;51.044;13.788;2023-01-24T11:12:15;54.20;;;22.13;;
74245;SDS011;62601;51.044;13.788;2023-01-24T11:14:39;47.22;;;23.13;;
74245;SDS011;62601;51.044;13.788;2023-01-24T11:17:01;50.95;;;23.90;;
74245;SDS011;62601;51.044;13.788;2023-01-24T11:19:33;52.85;;;22.55;;
74245;SDS011;62601;51.044;13.788;2023-01-24T11:21:55;51.97;;;22.48;;
74245;SDS011;62601;51.044;13.788;2023-01-24T11:24:20;54.20;;;25.38;;
74245;SDS011;62601;51.044;13.788;2023-01-24T11:29:32;61.53;;;25.73;;
74245;SDS011;62601;51.044;13.788;2023-01-24T11:31:54;55.05;;;25.17;;
74245;SDS011;62601;51.044;13.788;2023-01-24T11:34:32;56.05;;;25.10;;
74245;SDS011;62601;51.044;13.788;2023-01-24T11:36:59;50.95;;;24.15;;
74245;SDS011;62601;51.044;13.788;2023-01-24T11:42:04;52.78;;;23.58;;
74245;SDS011;62601;51.044;13.788;2023-01-24T11:44:40;61.13;;;26.55;;
74245;SDS011;62601;51.044;13.788;2023-01-24T11:47:08;62.20;;;25.10;;
74245;SDS011;62601;51.044;13.788;2023-01-24T11:49:36;62.08;;;25.55;;
74245;SDS011;62601;51.044;13.788;2023-01-24T11:54:43;59.33;;;24.08;;
74245;SDS011;62601;51.044;13.788;2023-01-24T11:57:17;64.95;;;26.70;;
74245;SDS011;62601;51.044;13.788;2023-01-24T12:00:02;58.88;;;25.60;;
74245;SDS011;62601;51.044;13.788;2023-01-24T12:07:36;58.10;;;24.75;;
74245;SDS011;62601;51.044;13.788;2023-01-24T12:18:04;58.95;;;26.75;;
74245;SDS011;62601;51.044;13.788;2023-01-24T12:20:44;52.35;;;24.67;;
74245;SDS011;62601;51.044;13.788;2023-01-24T12:25:50;55.63;;;22.60;;
74245;SDS011;62601;51.044;13.788;2023-01-24T12:28:22;56.40;;;24.63;;
74245;SDS011;62601;51.044;13.788;2023-01-24T12:30:47;46.22;;;22.77;;
74245;SDS011;62601;51.044;13.788;2023-01-24T12:33:30;50.47;;;24.00;;
74245;SDS011;62601;51.044;13.788;2023-01-24T12:35:57;57.65;;;23.65;;
74245;SDS011;62601;51.044;13.788;2023-01-24T12:38:35;53.03;;;24.83;;
74245;SDS011;62601;51.044;13.788;2023-01-24T12:41:40;49.25;;;23.40;;
74245;SDS011;62601;51.044;13.788;2023-01-24T12:47:28;51.55;;;23.50;;
74245;SDS011;62601;51.044;13.788;2023-01-24T12:54:42;48.45;;;22.08;;
74245;SDS011;62601;51.044;13.788;2023-01-24T12:57:17;51.90;;;22.77;;
74245;SDS011;62601;51.044;13.788;2023-01-24T12:59:40;45.65;;;22.40;;
74245;SDS011;62601;51.044;13.788;2023-01-24T13:02:16;47.60;;;21.85;;
74245;SDS011;62601;51.044;13.788;2023-01-24T13:04:48;47.38;;;22.05;;
74245;SDS011;62601;51.044;13.788;2023-01-24T13:07:23;43.80;;;22.40;;
74245;SDS011;62601;51.044;13.788;2023-01-24T13:12:19;44.88;;;21.35;;
74245;SDS011;62601;51.044;13.788;2023-01-24T13:14:44;40.10;;;19.98;;
74245;SDS011;62601;51.044;13.788;2023-01-24T13:20:24;34.53;;;17.92;;
74245;SDS011;62601;51.044;13.788;2023-01-24T13:22:53;36.42;;;19.20;;
74245;SDS011;62601;51.044;13.788;2023-01-24T13:25:31;34.92;;;17.95;;
74245;SDS011;62601;51.044;13.788;2023-01-24T13:33:19;39.03;;;18.13;;
74245;SDS011;62601;51.044;13.788;2023-01-24T13:35:51;37.05;;;17.20;;
74245;SDS011;62601;51.044;13.788;2023-01-24T13:41:04;35.40;;;17.40;;
74245;SDS011;62601;51.044;13.788;2023-01-24T13:43:59;34.60;;;18.33;;
74245;SDS011;62601;51.044;13.788;2023-01-24T13:46:16;33.28;;;16.95;;
74245;SDS011;62601;51.044;13.788;2023-01-24T13:48:42;37.53;;;18.17;;
74245;SDS011;62601;51.044;13.788;2023-01-24T13:56:21;29.23;;;16.73;;
74245;SDS011;62601;51.044;13.788;2023-01-24T13:58:43;35.72;;;19.38;;
74245;SDS011;62601;51.044;13.788;2023-01-24T14:01:16;34.85;;;18.05;;
74245;SDS011;62601;51.044;13.788;2023-01-24T14:03:37;39.80;;;18.98;;
74245;SDS011;62601;51.044;13.788;2023-01-24T14:06:05;37.95;;;19.02;;
74245;SDS011;62601;51.044;13.788;2023-01-24T14:08:40;39.47;;;18.95;;
74245;SDS011;62601;51.044;13.788;2023-01-24T14:16:10;44.10;;;21.05;;
74245;SDS011;62601;51.044;13.788;2023-01-24T14:18:46;45.65;;;22.05;;
74245;SDS011;62601;51.044;13.788;2023-01-24T14:21:17;46.72;;;22.60;;
74245;SDS011;62601;51.044;13.788;2023-01-24T14:23:41;46.38;;;21.55;;
74245;SDS011;62601;51.044;13.788;2023-01-24T14:26:03;50.10;;;21.88;;
74245;SDS011;62601;51.044;13.788;2023-01-24T14:28:40;44.42;;;22.85;;
74245;SDS011;62601;51.044;13.788;2023-01-24T14:31:04;51.08;;;23.60;;
74245;SDS011;62601;51.044;13.788;2023-01-24T14:36:11;52.85;;;23.55;;
74245;SDS011;62601;51.044;13.788;2023-01-24T14:38:33;54.78;;;24.67;;
74245;SDS011;62601;51.044;13.788;2023-01-24T14:40:55;51.83;;;21.92;;
74245;SDS011;62601;51.044;13.788;2023-01-24T14:43:15;53.25;;;24.80;;
74245;SDS011;62601;51.044;13.788;2023-01-24T14:45:36;49.88;;;24.38;;
74245;SDS011;62601;51.044;13.788;2023-01-24T14:47:58;54.45;;;25.92;;
74245;SDS011;62601;51.044;13.788;2023-01-24T14:50:25;58.95;;;25.80;;
74245;SDS011;62601;51.044;13.788;2023-01-24T14:52:47;55.28;;;25.27;;
74245;SDS011;62601;51.044;13.788;2023-01-24T14:55:31;48.13;;;22.75;;
74245;SDS011;62601;51.044;13.788;2023-01-24T14:57:50;53.78;;;24.55;;
74245;SDS011;62601;51.044;13.788;2023-01-24T15:02:36;54.95;;;24.77;;
74245;SDS011;62601;51.044;13.788;2023-01-24T15:04:57;53.35;;;24.63;;
74245;SDS011;62601;51.044;13.788;2023-01-24T15:07:18;57.35;;;24.70;;
74245;SDS011;62601;51.044;13.788;2023-01-24T15:09:40;54.28;;;24.27;;
74245;SDS011;62601;51.044;13.788;2023-01-24T15:14:40;60.30;;;25.85;;
74245;SDS011;62601;51.044;13.788;2023-01-24T15:17:00;48.78;;;23.50;;
74245;SDS011;62601;51.044;13.788;2023-01-24T15:19:22;49.75;;;22.98;;
74245;SDS011;62601;51.044;13.788;2023-01-24T15:21:44;61.03;;;24.75;;
74245;SDS011;62601;51.044;13.788;2023-01-24T15:24:29;60.15;;;25.50;;
74245;SDS011;62601;51.044;13.788;2023-01-24T15:26:51;53.78;;;25.08;;